Airfield :
LOGIN :

Register | Disclaimer

   EN    FR    IT 

 










Legend :    VFR   Marginal VFR   IFR   Intensive IFR   Very Intensive IFR
Visi :
Ceiling :
>= 8 km
>= 3000ft
5 to 8 km
1000 to 3000 ft
1500m to 5 km
500 to 1000 ft
800 to 1500m
200 to 500 ft
< 800m
< 200 ft
Symbols :   Thunderstorms  Fog  Heavy snow  Heavy precipitations  Wind > 20 kt
SIGMETs :     Misc.  Thunderstorms  Icing  Turbulence  Mountain Waves  Volcanic Ashes







- Airport Elevation : 1674 ft
- IATA code : BRN


LSZB - Bern Belp

CURRENT METAR :
  • 231320Z 27014G24KT 210V310 9999 FEW070 SCT160 26/15 Q1016 NOSIG

EXPIRED METARs :
  • 231250Z 27012KT 220V310 9999 FEW070 SCT160 26/14 Q1017 NOSIG
  • 231220Z 27013KT 240V310 9999 FEW070 SCT170 25/14 Q1017 NOSIG
  • 231150Z 27011KT 9999 SCT060 25/15 Q1018 NOSIG
  • 231120Z 27014KT 9999 SCT060 25/14 Q1018 NOSIG
  • 231050Z 26012KT 9999 SCT060 25/14 Q1019 NOSIG

TAF TAF LSZB
Valid from the 23 at 12:00 until the 23 at 21:00 UTC


231125Z 2312/2321 26012KT 9999 SCT060
TEMPO 2312/2318 24015G25KT
BECMG 2317/2319 30020G35KT
TEMPO 2317/2321 SHRA BKN035TCU
PROB40
TEMPO 2318/2321 30025G45KT 4000 TSRA BKN030CB
ATIS : +41 22 417 40 76
No reported NOTAMs for that airfield.
1 SIGMET reported for the Switzerland FIR (LSAS) :
 
Severe turbulence
LSAS SIGMET 1 VALID 231300/231500 LSZH
LSAS SWITZERLAND FIR SEV TURB FCST WI N4757 E00844 - N4737 E00842 - N4657 E00712 - N4654 E00704 - N4654 E00701 - N4717 E00651 - N4733 E00654 - N4757 E00844 SFC/FL100 MOV SE INTSF=



MET'MAP, your aeronautical weather chart ! - Copyright ORBIFLY December 2007 - Disclaimer

ORBIFLY MET'MAP TEAM :

Programming & Development : Alexandra Zaïnal
Concept & Development : Baudouin d'Aumeries
Co-Development & Prog : Marc-Olivier Méhu
Technical & hardware support : Manuel Goepfert

Contact : metmap@orbifly.com




SOURCES & CREDITS :

   NOAA